Time;durP1;ratioP1;P1;durP2;ratioP2;P2;SDS_P1;SDS_P2;PMS_P1;PMS_P2;Temp;Humidity;BMP_temperature;BMP_pressure;BME280_temperature;BME280_humidity;BME280_pressure;Samples;Min_cycle;Max_cycle;Signal;HPM_P1;HPM_P2
2021/05/25 00:00:37;;;;;;;;;;;21.40;44.40;;;;;;461091;258;1182;-45
2021/05/25 00:02:38;;;;;;;;;;;21.40;44.30;;;;;;461097;258;2161;-45
2021/05/25 00:04:40;;;;;;;;;;;21.40;44.20;;;;;;461152;258;1102;-45
2021/05/25 00:06:41;;;;;;;;;;;21.50;44.30;;;;;;461277;258;1244;-45
2021/05/25 00:08:42;;;;;;;;;;;21.50;44.30;;;;;;461542;258;1061;-45
2021/05/25 00:10:43;;;;;;;;;;;21.40;44.20;;;;;;461197;258;1228;-45
2021/05/25 00:12:45;;;;;;;;;;;21.50;44.20;;;;;;461435;258;1148;-45
2021/05/25 00:14:46;;;;;;;;;;;21.50;44.10;;;;;;461429;258;1084;-45
2021/05/25 00:16:47;;;;;;;;;;;21.50;44.10;;;;;;461497;258;1233;-45
2021/05/25 00:18:49;;;;;;;;;;;21.60;44.10;;;;;;461172;258;1083;-45
2021/05/25 00:20:50;;;;;;;;;;;21.60;44.00;;;;;;461439;258;1074;-45
2021/05/25 00:22:52;;;;;;;;;;;21.60;44.00;;;;;;461175;258;2168;-45
2021/05/25 00:24:53;;;;;;;;;;;21.60;44.00;;;;;;461223;258;1185;-44
2021/05/25 00:26:54;;;;;;;;;;;21.50;44.10;;;;;;461323;258;1365;-45
2021/05/25 00:28:55;;;;;;;;;;;21.60;44.10;;;;;;461084;258;1065;-45
2021/05/25 00:30:57;;;;;;;;;;;21.20;44.70;;;;;;461076;258;1080;-45
2021/05/25 00:32:58;;;;;;;;;;;20.80;45.90;;;;;;461534;258;1298;-45
2021/05/25 00:35:00;;;;;;;;;;;20.40;46.80;;;;;;461206;258;1070;-45
2021/05/25 00:37:01;;;;;;;;;;;20.10;47.60;;;;;;461590;258;1190;-44
2021/05/25 00:39:02;;;;;;;;;;;19.90;48.00;;;;;;461251;258;1060;-45
2021/05/25 00:41:04;;;;;;;;;;;19.70;48.50;;;;;;461138;258;1244;-45
2021/05/25 00:43:05;;;;;;;;;;;19.60;48.70;;;;;;461562;258;2196;-44
2021/05/25 00:45:06;;;;;;;;;;;19.60;49.00;;;;;;461596;258;1100;-45
2021/05/25 00:47:07;;;;;;;;;;;19.50;49.20;;;;;;461167;258;1190;-45
2021/05/25 00:49:09;;;;;;;;;;;19.40;49.40;;;;;;461556;258;1092;-45
2021/05/25 00:51:11;;;;;;;;;;;19.30;49.50;;;;;;461124;258;1157;-45
2021/05/25 00:53:12;;;;;;;;;;;19.30;49.60;;;;;;461115;258;1044;-44
2021/05/25 00:55:13;;;;;;;;;;;19.30;49.60;;;;;;461431;258;1265;-45
2021/05/25 00:57:15;;;;;;;;;;;19.30;49.90;;;;;;461474;258;1107;-44
2021/05/25 00:59:16;;;;;;;;;;;19.20;49.90;;;;;;461633;258;1110;-44
2021/05/25 01:01:17;;;;;;;;;;;19.10;50.10;;;;;;461390;258;1180;-44
2021/05/25 01:03:18;;;;;;;;;;;19.10;50.10;;;;;;461208;258;2161;-44
2021/05/25 01:05:20;;;;;;;;;;;19.10;50.20;;;;;;461385;258;1126;-44
2021/05/25 01:07:21;;;;;;;;;;;19.10;50.20;;;;;;461178;258;1207;-44
2021/05/25 01:09:23;;;;;;;;;;;19.00;50.30;;;;;;461300;258;1118;-44
2021/05/25 01:11:24;;;;;;;;;;;19.00;50.40;;;;;;461257;258;1426;-44
2021/05/25 01:13:27;;;;;;;;;;;19.00;50.50;;;;;;461329;258;1275;-45
2021/05/25 01:15:27;;;;;;;;;;;18.90;50.50;;;;;;461053;258;2241;-44
2021/05/25 01:17:28;;;;;;;;;;;18.90;50.60;;;;;;461120;258;1728;-44
2021/05/25 01:19:29;;;;;;;;;;;18.90;50.70;;;;;;461122;258;1251;-44
2021/05/25 01:21:30;;;;;;;;;;;18.90;50.60;;;;;;461204;258;1326;-44
2021/05/25 01:23:34;;;;;;;;;;;18.90;50.70;;;;;;461471;258;2191;-45
2021/05/25 01:25:33;;;;;;;;;;;18.90;50.70;;;;;;461114;258;2144;-45
2021/05/25 01:27:34;;;;;;;;;;;18.90;50.70;;;;;;461300;258;1231;-44
2021/05/25 01:29:35;;;;;;;;;;;18.90;50.60;;;;;;461601;258;1146;-44
2021/05/25 01:31:37;;;;;;;;;;;18.90;50.70;;;;;;461549;258;1440;-44
2021/05/25 01:33:38;;;;;;;;;;;18.80;50.70;;;;;;461589;258;1072;-45
2021/05/25 01:35:39;;;;;;;;;;;18.80;50.70;;;;;;461399;258;1073;-45
2021/05/25 01:37:41;;;;;;;;;;;18.80;50.70;;;;;;461204;258;1248;-44
2021/05/25 01:39:43;;;;;;;;;;;18.80;50.80;;;;;;461553;258;1092;-45
2021/05/25 01:41:43;;;;;;;;;;;18.80;50.70;;;;;;461171;258;2455;-44
2021/05/25 01:43:44;;;;;;;;;;;18.80;50.70;;;;;;461532;258;2265;-44
2021/05/25 01:45:46;;;;;;;;;;;18.80;50.80;;;;;;461199;258;1167;-44
2021/05/25 01:47:47;;;;;;;;;;;18.80;50.80;;;;;;461190;258;1224;-44
2021/05/25 01:49:48;;;;;;;;;;;18.80;51.00;;;;;;461441;258;1143;-45
2021/05/25 01:51:50;;;;;;;;;;;18.70;50.90;;;;;;461265;258;1737;-45
2021/05/25 01:53:51;;;;;;;;;;;18.70;50.80;;;;;;461625;258;1088;-45
2021/05/25 01:55:52;;;;;;;;;;;18.70;50.80;;;;;;461250;258;1703;-44
2021/05/25 01:57:54;;;;;;;;;;;18.80;50.90;;;;;;461135;258;1314;-44
2021/05/25 01:59:55;;;;;;;;;;;18.70;50.90;;;;;;461195;258;1275;-44
2021/05/25 02:01:56;;;;;;;;;;;18.70;50.90;;;;;;461377;258;1144;-44
2021/05/25 02:03:58;;;;;;;;;;;18.70;50.90;;;;;;461213;258;2212;-44
2021/05/25 02:05:59;;;;;;;;;;;18.70;50.90;;;;;;461086;258;1413;-44
2021/05/25 02:08:00;;;;;;;;;;;18.70;50.90;;;;;;461289;258;1329;-44
2021/05/25 02:10:01;;;;;;;;;;;18.70;50.90;;;;;;461493;258;1099;-44
2021/05/25 02:12:03;;;;;;;;;;;18.70;50.90;;;;;;461051;258;1256;-45
2021/05/25 02:14:04;;;;;;;;;;;18.70;51.00;;;;;;461506;258;1114;-44
2021/05/25 02:16:05;;;;;;;;;;;18.70;51.00;;;;;;461101;258;1468;-45
2021/05/25 02:18:07;;;;;;;;;;;18.70;51.00;;;;;;461176;258;1149;-45
2021/05/25 02:20:08;;;;;;;;;;;18.70;51.00;;;;;;461181;258;1110;-44
2021/05/25 02:22:10;;;;;;;;;;;18.70;51.10;;;;;;461334;258;1094;-44
2021/05/25 02:24:10;;;;;;;;;;;18.60;51.10;;;;;;461458;258;2179;-45
2021/05/25 02:26:12;;;;;;;;;;;18.60;51.10;;;;;;461110;258;1316;-44
2021/05/25 02:28:13;;;;;;;;;;;18.60;51.10;;;;;;461548;258;1081;-44
2021/05/25 02:30:14;;;;;;;;;;;18.60;51.10;;;;;;461351;258;1079;-44
2021/05/25 02:32:16;;;;;;;;;;;18.60;51.10;;;;;;461235;258;1193;-45
2021/05/25 02:34:17;;;;;;;;;;;18.50;51.10;;;;;;461192;258;1321;-44
2021/05/25 02:36:18;;;;;;;;;;;18.60;51.10;;;;;;461459;258;1192;-45
2021/05/25 02:38:19;;;;;;;;;;;18.60;51.10;;;;;;461510;258;1069;-44
2021/05/25 02:40:21;;;;;;;;;;;18.60;51.10;;;;;;461364;258;1091;-44
2021/05/25 02:42:22;;;;;;;;;;;18.50;51.10;;;;;;461313;258;1440;-44
2021/05/25 02:44:23;;;;;;;;;;;18.50;51.20;;;;;;461550;258;2207;-44
2021/05/25 02:46:24;;;;;;;;;;;18.60;51.10;;;;;;461276;258;1091;-45
2021/05/25 02:48:26;;;;;;;;;;;18.60;51.20;;;;;;461231;258;1111;-44
2021/05/25 02:50:27;;;;;;;;;;;18.50;51.10;;;;;;461601;258;1064;-44
2021/05/25 02:52:28;;;;;;;;;;;18.60;51.10;;;;;;461207;258;1097;-44
2021/05/25 02:54:30;;;;;;;;;;;18.60;51.10;;;;;;461625;258;1138;-44
2021/05/25 02:56:31;;;;;;;;;;;18.50;51.10;;;;;;461120;258;1127;-45
2021/05/25 02:58:32;;;;;;;;;;;18.60;51.00;;;;;;461181;258;1200;-44
2021/05/25 03:00:33;;;;;;;;;;;18.60;51.00;;;;;;461528;258;1064;-45
2021/05/25 03:02:35;;;;;;;;;;;18.60;51.00;;;;;;461002;258;1277;-44
2021/05/25 03:04:38;;;;;;;;;;;18.60;51.00;;;;;;461108;258;2204;-44
2021/05/25 03:06:37;;;;;;;;;;;18.80;50.60;;;;;;460979;258;1242;-44
2021/05/25 03:08:39;;;;;;;;;;;19.30;49.40;;;;;;461074;258;1219;-45
2021/05/25 03:10:40;;;;;;;;;;;19.70;48.30;;;;;;461212;258;1077;-44
2021/05/25 03:12:41;;;;;;;;;;;19.90;47.70;;;;;;461133;258;1122;-45
2021/05/25 03:14:42;;;;;;;;;;;20.00;47.20;;;;;;461186;258;1090;-44
2021/05/25 03:16:44;;;;;;;;;;;20.20;46.80;;;;;;461543;258;1383;-45
2021/05/25 03:18:45;;;;;;;;;;;20.40;46.50;;;;;;461610;258;1260;-44
2021/05/25 03:20:48;;;;;;;;;;;20.40;46.30;;;;;;461197;258;1143;-45
2021/05/25 03:22:48;;;;;;;;;;;20.50;46.10;;;;;;461156;258;1880;-45
2021/05/25 03:24:49;;;;;;;;;;;20.60;46.00;;;;;;461431;258;2145;-45
2021/05/25 03:26:50;;;;;;;;;;;20.60;45.80;;;;;;461451;258;1169;-45
2021/05/25 03:28:51;;;;;;;;;;;20.70;45.80;;;;;;461132;258;1180;-45
2021/05/25 03:30:53;;;;;;;;;;;20.70;45.60;;;;;;461449;258;1205;-45
2021/05/25 03:32:54;;;;;;;;;;;20.80;45.50;;;;;;461208;258;1283;-45
2021/05/25 03:34:55;;;;;;;;;;;20.80;45.40;;;;;;461335;258;1086;-45
2021/05/25 03:36:56;;;;;;;;;;;20.90;45.30;;;;;;461217;258;1356;-45
2021/05/25 03:38:58;;;;;;;;;;;20.90;45.20;;;;;;461478;258;1234;-44
2021/05/25 03:40:59;;;;;;;;;;;20.90;45.10;;;;;;461299;258;1449;-45
2021/05/25 03:43:00;;;;;;;;;;;21.00;45.00;;;;;;461394;258;1188;-45
2021/05/25 03:45:02;;;;;;;;;;;21.10;45.00;;;;;;461100;258;2273;-45
2021/05/25 03:47:03;;;;;;;;;;;21.10;44.90;;;;;;461172;258;1478;-45
2021/05/25 03:49:04;;;;;;;;;;;21.10;44.90;;;;;;461212;258;1264;-45
2021/05/25 03:51:05;;;;;;;;;;;21.10;44.70;;;;;;461202;258;1188;-44
2021/05/25 03:53:07;;;;;;;;;;;21.20;44.80;;;;;;461121;258;1232;-45
2021/05/25 03:55:11;;;;;;;;;;;21.20;44.70;;;;;;461408;258;1078;-44
2021/05/25 03:57:24;;;;;;;;;;;21.20;44.60;;;;;;461113;258;2059;-45
2021/05/25 03:59:11;;;;;;;;;;;21.20;44.50;;;;;;460331;258;2360;-45
2021/05/25 04:01:12;;;;;;;;;;;21.30;44.50;;;;;;461394;258;1229;-45
2021/05/25 04:03:13;;;;;;;;;;;21.30;44.40;;;;;;461067;258;1262;-45
2021/05/25 04:05:14;;;;;;;;;;;21.30;44.40;;;;;;461113;258;2200;-45
2021/05/25 04:07:16;;;;;;;;;;;21.30;44.40;;;;;;461101;258;1326;-45
2021/05/25 04:09:17;;;;;;;;;;;21.40;44.40;;;;;;461194;258;1768;-45
2021/05/25 04:11:18;;;;;;;;;;;21.40;44.30;;;;;;461232;258;1319;-45
2021/05/25 04:13:19;;;;;;;;;;;21.40;44.30;;;;;;461079;258;1636;-45
2021/05/25 04:15:23;;;;;;;;;;;21.40;44.20;;;;;;461012;258;1078;-45
2021/05/25 04:17:22;;;;;;;;;;;21.50;44.20;;;;;;460965;258;2355;-45
2021/05/25 04:19:23;;;;;;;;;;;21.40;44.20;;;;;;460971;258;1248;-45
2021/05/25 04:21:25;;;;;;;;;;;21.50;44.10;;;;;;461195;258;1239;-45
2021/05/25 04:23:26;;;;;;;;;;;21.50;44.10;;;;;;461399;258;1119;-44
2021/05/25 04:25:27;;;;;;;;;;;21.50;44.10;;;;;;461327;258;2207;-44
2021/05/25 04:27:28;;;;;;;;;;;21.50;44.10;;;;;;461389;258;1311;-45
2021/05/25 04:29:30;;;;;;;;;;;21.60;44.10;;;;;;461180;258;1190;-45
2021/05/25 04:31:31;;;;;;;;;;;21.60;44.00;;;;;;461102;258;1085;-45
2021/05/25 04:33:32;;;;;;;;;;;21.60;44.10;;;;;;461009;258;1110;-45
2021/05/25 04:35:34;;;;;;;;;;;21.50;44.10;;;;;;461073;258;1120;-44
2021/05/25 04:37:35;;;;;;;;;;;21.20;44.70;;;;;;461192;258;1080;-45
2021/05/25 04:39:36;;;;;;;;;;;20.70;45.90;;;;;;460979;258;1086;-45
2021/05/25 04:41:37;;;;;;;;;;;20.30;46.90;;;;;;460960;258;1137;-45
2021/05/25 04:43:39;;;;;;;;;;;20.10;47.70;;;;;;461405;258;1327;-44
2021/05/25 04:45:42;;;;;;;;;;;19.90;48.10;;;;;;460925;258;2161;-44
2021/05/25 04:47:41;;;;;;;;;;;19.80;48.50;;;;;;460888;258;1249;-44
2021/05/25 04:49:43;;;;;;;;;;;19.60;48.70;;;;;;460911;258;1132;-44
2021/05/25 04:51:44;;;;;;;;;;;19.60;49.00;;;;;;461327;258;1104;-44
2021/05/25 04:53:45;;;;;;;;;;;19.50;49.10;;;;;;461005;258;1128;-45
2021/05/25 04:55:46;;;;;;;;;;;19.40;49.20;;;;;;460900;258;1137;-44
2021/05/25 04:57:48;;;;;;;;;;;19.40;49.30;;;;;;461270;258;1110;-44
2021/05/25 04:59:49;;;;;;;;;;;19.40;49.50;;;;;;461158;258;1158;-44
2021/05/25 05:01:51;;;;;;;;;;;19.30;49.60;;;;;;461095;258;1578;-45
2021/05/25 05:03:52;;;;;;;;;;;19.30;49.70;;;;;;461321;258;1133;-44
2021/05/25 05:05:54;;;;;;;;;;;19.30;49.70;;;;;;460997;258;2153;-44
2021/05/25 05:07:54;;;;;;;;;;;19.20;49.90;;;;;;461224;258;2366;-44
2021/05/25 05:09:55;;;;;;;;;;;19.20;50.00;;;;;;461112;258;1217;-45
2021/05/25 05:11:57;;;;;;;;;;;19.10;50.00;;;;;;460831;258;1278;-44
2021/05/25 05:13:58;;;;;;;;;;;19.10;50.20;;;;;;461053;258;1175;-44
2021/05/25 05:15:59;;;;;;;;;;;19.10;50.10;;;;;;460948;258;1126;-44
2021/05/25 05:18:01;;;;;;;;;;;19.10;50.20;;;;;;460819;258;1317;-44
2021/05/25 05:20:02;;;;;;;;;;;19.00;50.20;;;;;;460812;258;1122;-45
2021/05/25 05:22:03;;;;;;;;;;;19.00;50.20;;;;;;461030;258;1085;-44
2021/05/25 05:24:04;;;;;;;;;;;19.00;50.30;;;;;;460738;258;1124;-44
2021/05/25 05:26:06;;;;;;;;;;;19.00;50.40;;;;;;460731;258;2197;-45
2021/05/25 05:28:07;;;;;;;;;;;19.00;50.40;;;;;;460768;258;1114;-44
2021/05/25 05:30:08;;;;;;;;;;;19.00;50.40;;;;;;460769;258;1167;-44
2021/05/25 05:32:09;;;;;;;;;;;19.00;50.40;;;;;;460738;258;1178;-44
2021/05/25 05:34:11;;;;;;;;;;;19.00;50.40;;;;;;460858;258;1112;-44
2021/05/25 05:36:16;;;;;;;;;;;19.00;50.30;;;;;;460954;258;1222;-44
2021/05/25 05:38:13;;;;;;;;;;;18.90;50.30;;;;;;460748;258;2094;-44
2021/05/25 05:40:14;;;;;;;;;;;19.00;50.40;;;;;;460706;258;1260;-44
2021/05/25 05:42:16;;;;;;;;;;;18.90;50.40;;;;;;460904;258;1253;-45
2021/05/25 05:44:17;;;;;;;;;;;18.90;50.40;;;;;;460896;258;1136;-44
2021/05/25 05:46:18;;;;;;;;;;;18.90;50.50;;;;;;460726;258;2189;-45
2021/05/25 05:48:20;;;;;;;;;;;18.90;50.60;;;;;;460738;258;1520;-44
2021/05/25 05:50:21;;;;;;;;;;;18.80;50.60;;;;;;460842;258;1115;-44
2021/05/25 05:52:22;;;;;;;;;;;18.80;50.60;;;;;;461074;258;1391;-44
2021/05/25 05:54:23;;;;;;;;;;;18.80;50.60;;;;;;460723;258;1190;-45
2021/05/25 05:56:25;;;;;;;;;;;18.80;50.70;;;;;;460828;258;1398;-45
2021/05/25 05:58:26;;;;;;;;;;;18.80;50.70;;;;;;461149;258;1077;-44
2021/05/25 06:00:27;;;;;;;;;;;18.70;50.70;;;;;;460733;258;1319;-44
2021/05/25 06:02:29;;;;;;;;;;;18.70;50.70;;;;;;460697;258;1378;-44
2021/05/25 06:04:30;;;;;;;;;;;18.70;50.70;;;;;;460710;258;1099;-44
2021/05/25 06:06:31;;;;;;;;;;;18.70;50.80;;;;;;460590;258;2204;-44
2021/05/25 06:08:32;;;;;;;;;;;18.70;50.80;;;;;;460767;258;1124;-44
2021/05/25 06:10:36;;;;;;;;;;;18.70;50.60;;;;;;460700;258;1358;-44
2021/05/25 06:12:35;;;;;;;;;;;18.80;50.70;;;;;;460436;258;1373;-44
2021/05/25 06:14:36;;;;;;;;;;;18.80;50.60;;;;;;460458;258;1110;-44
2021/05/25 06:16:37;;;;;;;;;;;18.70;50.70;;;;;;460318;258;1189;-45
2021/05/25 06:18:39;;;;;;;;;;;18.70;50.60;;;;;;460755;258;1134;-44
2021/05/25 06:20:40;;;;;;;;;;;18.70;50.60;;;;;;460460;258;1136;-44
2021/05/25 06:22:41;;;;;;;;;;;18.70;50.80;;;;;;460590;258;1202;-44
2021/05/25 06:24:43;;;;;;;;;;;18.70;50.80;;;;;;460584;258;2169;-44
2021/05/25 06:26:44;;;;;;;;;;;18.70;50.70;;;;;;460611;258;1491;-44
2021/05/25 06:28:45;;;;;;;;;;;18.70;50.70;;;;;;460792;258;1226;-44
2021/05/25 06:30:46;;;;;;;;;;;18.60;50.80;;;;;;460629;258;1406;-45
2021/05/25 06:32:48;;;;;;;;;;;18.60;50.80;;;;;;460664;258;1098;-44
2021/05/25 06:34:51;;;;;;;;;;;18.60;50.80;;;;;;460689;258;1077;-45
2021/05/25 06:36:50;;;;;;;;;;;18.60;50.80;;;;;;460603;258;1961;-44
2021/05/25 06:38:52;;;;;;;;;;;18.60;50.90;;;;;;460742;258;1115;-44
2021/05/25 06:40:53;;;;;;;;;;;18.60;50.90;;;;;;460540;258;1339;-44
2021/05/25 06:42:54;;;;;;;;;;;18.60;50.80;;;;;;460513;258;1311;-44
2021/05/25 06:44:55;;;;;;;;;;;18.60;50.80;;;;;;460673;258;2157;-45
2021/05/25 06:46:57;;;;;;;;;;;18.60;50.90;;;;;;460602;258;1296;-44
2021/05/25 06:48:58;;;;;;;;;;;18.60;50.80;;;;;;460601;258;1310;-44
2021/05/25 06:51:04;;;;;;;;;;;18.60;50.80;;;;;;460798;258;1093;-44
2021/05/25 06:53:01;;;;;;;;;;;18.60;50.80;;;;;;459986;258;2229;-44
2021/05/25 06:55:03;;;;;;;;;;;18.60;50.80;;;;;;460379;258;1241;-44
2021/05/25 06:57:03;;;;;;;;;;;18.60;50.80;;;;;;460174;258;1923;-44
2021/05/25 06:59:05;;;;;;;;;;;18.60;50.80;;;;;;460088;258;1222;-44
2021/05/25 07:01:06;;;;;;;;;;;18.50;50.80;;;;;;460127;258;1196;-44
2021/05/25 07:03:07;;;;;;;;;;;18.50;50.90;;;;;;460261;258;1039;-44
2021/05/25 07:05:09;;;;;;;;;;;18.50;50.90;;;;;;460451;258;2144;-44
2021/05/25 07:07:13;;;;;;;;;;;18.60;50.80;;;;;;460346;258;1202;-44
2021/05/25 07:09:14;;;;;;;;;;;18.50;50.80;;;;;;460376;258;1557;-44
2021/05/25 07:11:16;;;;;;;;;;;18.60;50.80;;;;;;460400;258;1187;-45
2021/05/25 07:13:17;;;;;;;;;;;18.50;50.90;;;;;;460588;258;1109;-44
2021/05/25 07:15:18;;;;;;;;;;;18.50;50.80;;;;;;460476;258;1088;-44
2021/05/25 07:17:19;;;;;;;;;;;18.60;50.70;;;;;;460498;258;1253;-44
2021/05/25 07:19:21;;;;;;;;;;;19.00;49.80;;;;;;460516;258;1395;-45
2021/05/25 07:21:22;;;;;;;;;;;19.40;48.60;;;;;;460354;258;1460;-45
2021/05/25 07:23:23;;;;;;;;;;;19.80;47.80;;;;;;460614;258;1135;-44
2021/05/25 07:25:24;;;;;;;;;;;20.00;47.20;;;;;;460423;258;2200;-44
2021/05/25 07:27:26;;;;;;;;;;;20.10;46.70;;;;;;460460;258;1246;-45
2021/05/25 07:29:27;;;;;;;;;;;20.20;46.40;;;;;;460566;253;1439;-44
2021/05/25 07:31:28;;;;;;;;;;;20.40;46.30;;;;;;460576;258;1418;-44
2021/05/25 07:33:30;;;;;;;;;;;20.40;46.00;;;;;;460331;258;1029;-44
2021/05/25 07:35:31;;;;;;;;;;;20.50;45.80;;;;;;460792;258;1097;-45
2021/05/25 07:37:32;;;;;;;;;;;20.50;45.60;;;;;;460341;258;1019;-45
2021/05/25 07:39:33;;;;;;;;;;;20.60;45.50;;;;;;460670;258;1379;-45
2021/05/25 07:41:35;;;;;;;;;;;20.70;45.40;;;;;;460448;258;1397;-45
2021/05/25 07:43:36;;;;;;;;;;;20.70;45.30;;;;;;460289;258;1153;-45
2021/05/25 07:45:37;;;;;;;;;;;20.80;45.20;;;;;;460406;258;2257;-44
2021/05/25 07:47:39;;;;;;;;;;;20.80;45.10;;;;;;460094;258;1162;-45
2021/05/25 07:49:40;;;;;;;;;;;20.90;45.10;;;;;;459747;258;1212;-45
2021/05/25 07:51:42;;;;;;;;;;;20.90;44.90;;;;;;460619;258;1010;-45
2021/05/25 07:53:42;;;;;;;;;;;20.90;44.80;;;;;;460413;258;1771;-44
2021/05/25 07:55:44;;;;;;;;;;;21.00;44.80;;;;;;460386;258;1191;-45
2021/05/25 07:57:45;;;;;;;;;;;21.00;44.70;;;;;;460261;258;1642;-45
2021/05/25 07:59:47;;;;;;;;;;;21.00;44.60;;;;;;460266;258;1145;-45
2021/05/25 08:01:48;;;;;;;;;;;21.10;44.60;;;;;;460242;258;1330;-45
2021/05/25 08:03:49;;;;;;;;;;;21.10;44.50;;;;;;460421;258;1180;-44
2021/05/25 08:05:51;;;;;;;;;;;21.10;44.40;;;;;;460803;258;2207;-45
2021/05/25 08:07:52;;;;;;;;;;;21.10;44.30;;;;;;460709;258;1263;-45
2021/05/25 08:09:53;;;;;;;;;;;21.20;44.30;;;;;;460279;258;1101;-44
2021/05/25 08:11:55;;;;;;;;;;;21.20;44.20;;;;;;460263;258;1325;-45
2021/05/25 08:13:56;;;;;;;;;;;21.20;44.10;;;;;;460492;258;1598;-45
2021/05/25 08:15:57;;;;;;;;;;;21.30;44.10;;;;;;460434;258;1342;-45
2021/05/25 08:18:05;;;;;;;;;;;21.30;44.10;;;;;;460510;258;1267;-45
2021/05/25 08:20:14;;;;;;;;;;;21.30;44.00;;;;;;460324;258;2026;-45
2021/05/25 08:22:05;;;;;;;;;;;21.40;44.00;;;;;;459926;258;1794;-45
2021/05/25 08:24:06;;;;;;;;;;;21.40;44.00;;;;;;460472;258;1116;-45
2021/05/25 08:26:08;;;;;;;;;;;21.40;43.90;;;;;;460302;258;2212;-44
2021/05/25 08:28:09;;;;;;;;;;;21.40;43.90;;;;;;460163;258;1180;-45
2021/05/25 08:30:10;;;;;;;;;;;21.50;43.90;;;;;;460200;258;1220;-45
2021/05/25 08:32:11;;;;;;;;;;;21.40;43.80;;;;;;460229;258;1349;-45
2021/05/25 08:34:13;;;;;;;;;;;21.50;43.80;;;;;;460358;258;1110;-45
2021/05/25 08:36:16;;;;;;;;;;;21.50;43.70;;;;;;460293;258;1132;-45
2021/05/25 08:38:16;;;;;;;;;;;21.50;43.60;;;;;;460340;258;2220;-45
2021/05/25 08:40:18;;;;;;;;;;;21.60;43.60;;;;;;460239;258;1110;-45
2021/05/25 08:42:19;;;;;;;;;;;21.60;43.60;;;;;;460394;258;1540;-45
2021/05/25 08:44:20;;;;;;;;;;;21.60;43.60;;;;;;460370;258;1132;-45
2021/05/25 08:46:24;;;;;;;;;;;21.60;43.50;;;;;;460413;258;2205;-45
2021/05/25 08:48:24;;;;;;;;;;;21.60;43.50;;;;;;460374;258;2401;-45
2021/05/25 08:50:26;;;;;;;;;;;21.60;43.60;;;;;;460494;258;1115;-45
2021/05/25 08:52:27;;;;;;;;;;;21.60;43.50;;;;;;460326;258;2433;-45
2021/05/25 08:54:28;;;;;;;;;;;21.60;43.50;;;;;;460501;257;1065;-44
2021/05/25 08:56:29;;;;;;;;;;;21.70;43.50;;;;;;459772;258;1218;-45
2021/05/25 08:58:30;;;;;;;;;;;21.60;43.50;;;;;;460395;258;1076;-45
2021/05/25 09:00:32;;;;;;;;;;;21.70;43.50;;;;;;460651;258;1252;-44
2021/05/25 09:02:34;;;;;;;;;;;21.70;43.50;;;;;;460431;258;1203;-44
2021/05/25 09:04:34;;;;;;;;;;;21.60;43.50;;;;;;460414;258;1365;-45
2021/05/25 09:06:35;;;;;;;;;;;21.70;43.50;;;;;;460311;258;2196;-45
2021/05/25 09:08:37;;;;;;;;;;;21.60;43.50;;;;;;460462;258;1141;-44
2021/05/25 09:10:40;;;;;;;;;;;21.70;43.40;;;;;;460528;258;1118;-44
2021/05/25 09:12:39;;;;;;;;;;;21.70;43.40;;;;;;460144;258;2292;-45
2021/05/25 09:14:41;;;;;;;;;;;21.70;43.40;;;;;;460406;258;1085;-45
2021/05/25 09:16:42;;;;;;;;;;;21.70;43.50;;;;;;460203;258;1148;-45
2021/05/25 09:18:43;;;;;;;;;;;21.70;43.40;;;;;;460433;258;1180;-45
2021/05/25 09:20:45;;;;;;;;;;;21.70;43.40;;;;;;460480;258;1259;-45
2021/05/25 09:22:46;;;;;;;;;;;21.70;43.40;;;;;;460582;258;1137;-45
2021/05/25 09:24:47;;;;;;;;;;;21.70;43.40;;;;;;460510;258;1136;-44
2021/05/25 09:26:49;;;;;;;;;;;21.70;43.40;;;;;;460321;257;2432;-44
2021/05/25 09:28:50;;;;;;;;;;;21.70;43.40;;;;;;460754;258;1270;-45
2021/05/25 09:30:51;;;;;;;;;;;21.70;43.40;;;;;;459568;258;1102;-45
2021/05/25 09:32:52;;;;;;;;;;;21.70;43.40;;;;;;460338;258;1079;-45
2021/05/25 09:34:53;;;;;;;;;;;21.70;43.30;;;;;;460324;258;816;-45
2021/05/25 09:36:55;;;;;;;;;;;21.70;43.40;;;;;;460665;258;1388;-45
2021/05/25 09:38:56;;;;;;;;;;;21.70;43.30;;;;;;460856;258;856;-44
2021/05/25 09:40:57;;;;;;;;;;;21.70;43.30;;;;;;460587;258;1596;-45
2021/05/25 09:42:58;;;;;;;;;;;21.70;43.40;;;;;;460296;258;1068;-45
2021/05/25 09:45:00;;;;;;;;;;;21.80;43.40;;;;;;460604;258;1115;-45
2021/05/25 09:47:02;;;;;;;;;;;21.80;43.40;;;;;;460414;258;2220;-45
2021/05/25 09:49:02;;;;;;;;;;;21.80;43.30;;;;;;460203;258;1345;-45
2021/05/25 09:51:04;;;;;;;;;;;21.80;43.30;;;;;;460163;258;1239;-44
2021/05/25 09:53:05;;;;;;;;;;;21.80;43.20;;;;;;459879;258;1199;-45
2021/05/25 09:55:06;;;;;;;;;;;21.80;43.20;;;;;;460268;257;1381;-45
2021/05/25 09:57:07;;;;;;;;;;;21.80;43.20;;;;;;460430;258;1097;-45
2021/05/25 09:59:09;;;;;;;;;;;21.80;43.20;;;;;;460242;258;1136;-45
2021/05/25 10:01:10;;;;;;;;;;;21.80;43.20;;;;;;459859;258;1204;-45
2021/05/25 10:03:13;;;;;;;;;;;21.80;43.20;;;;;;459860;258;1159;-45
2021/05/25 10:05:15;;;;;;;;;;;21.80;43.10;;;;;;459835;258;1893;-44
2021/05/25 10:07:14;;;;;;;;;;;21.80;43.10;;;;;;460339;258;2216;-45
2021/05/25 10:09:15;;;;;;;;;;;21.90;43.20;;;;;;460729;258;812;-45
2021/05/25 10:11:16;;;;;;;;;;;21.80;43.00;;;;;;460247;258;1511;-44
2021/05/25 10:13:18;;;;;;;;;;;21.90;43.10;;;;;;460632;258;1164;-45
2021/05/25 10:15:19;;;;;;;;;;;21.90;43.00;;;;;;460253;258;1186;-45
2021/05/25 10:17:32;;;;;;;;;;;21.90;43.00;;;;;;460610;258;1003;-45
2021/05/25 10:19:27;;;;;;;;;;;21.90;43.00;;;;;;459941;258;1420;-45
2021/05/25 10:21:27;;;;;;;;;;;21.90;43.00;;;;;;460671;258;2019;-45
2021/05/25 10:23:32;;;;;;;;;;;21.90;43.10;;;;;;460832;258;877;-45
2021/05/25 10:25:31;;;;;;;;;;;21.90;43.00;;;;;;459935;258;1396;-44
2021/05/25 10:27:32;;;;;;;;;;;21.90;43.00;;;;;;460272;258;2193;-45
2021/05/25 10:29:33;;;;;;;;;;;21.90;43.00;;;;;;460676;258;1128;-45
2021/05/25 10:31:35;;;;;;;;;;;21.90;42.90;;;;;;460434;258;1535;-45
2021/05/25 10:33:37;;;;;;;;;;;21.90;42.90;;;;;;460876;258;1132;-45
2021/05/25 10:35:37;;;;;;;;;;;21.90;42.90;;;;;;460126;258;2074;-44
2021/05/25 10:37:39;;;;;;;;;;;21.90;42.80;;;;;;460387;258;1279;-44
2021/05/25 10:39:41;;;;;;;;;;;21.90;42.90;;;;;;460500;258;1099;-45
2021/05/25 10:41:42;;;;;;;;;;;21.90;42.90;;;;;;460360;258;2164;-45
2021/05/25 10:43:44;;;;;;;;;;;21.90;42.70;;;;;;460629;258;1411;-45
2021/05/25 10:45:44;;;;;;;;;;;22.00;42.80;;;;;;460566;258;2435;-45
2021/05/25 10:47:50;;;;;;;;;;;21.90;42.80;;;;;;460568;258;2193;-45
2021/05/25 10:49:50;;;;;;;;;;;21.90;42.80;;;;;;460520;259;1795;-44
2021/05/25 10:51:52;;;;;;;;;;;22.00;42.80;;;;;;460506;258;1140;-45
2021/05/25 10:53:53;;;;;;;;;;;21.90;42.70;;;;;;460371;258;1212;-45
2021/05/25 10:55:55;;;;;;;;;;;22.00;42.70;;;;;;460360;258;1218;-45
2021/05/25 10:57:55;;;;;;;;;;;22.00;42.80;;;;;;460409;258;1280;-44
2021/05/25 10:59:57;;;;;;;;;;;22.00;42.70;;;;;;460253;258;1115;-45
2021/05/25 11:01:58;;;;;;;;;;;22.00;42.70;;;;;;460185;258;1255;-45
2021/05/25 11:03:59;;;;;;;;;;;22.00;42.70;;;;;;460469;258;1127;-45
2021/05/25 11:06:01;;;;;;;;;;;22.00;42.60;;;;;;460197;258;1334;-45
2021/05/25 11:08:02;;;;;;;;;;;22.00;42.60;;;;;;460302;258;2460;-45
2021/05/25 11:10:04;;;;;;;;;;;22.00;42.60;;;;;;460457;258;1416;-44
2021/05/25 11:12:05;;;;;;;;;;;22.00;42.60;;;;;;459657;258;1109;-44
2021/05/25 11:14:06;;;;;;;;;;;22.10;42.50;;;;;;460558;258;827;-45
2021/05/25 11:16:09;;;;;;;;;;;22.00;42.50;;;;;;460909;258;1358;-45
2021/05/25 11:18:09;;;;;;;;;;;22.00;42.50;;;;;;460749;258;2183;-45
2021/05/25 11:20:11;;;;;;;;;;;22.10;42.50;;;;;;460194;258;1295;-45
2021/05/25 11:22:22;;;;;;;;;;;22.10;42.60;;;;;;460050;258;2402;-45
2021/05/25 11:24:20;;;;;;;;;;;22.00;42.60;;;;;;460171;258;1855;-45
2021/05/25 11:26:22;;;;;;;;;;;22.10;42.50;;;;;;460318;258;2212;-45
2021/05/25 11:28:23;;;;;;;;;;;22.10;42.40;;;;;;460547;258;811;-44
2021/05/25 11:30:24;;;;;;;;;;;22.10;42.40;;;;;;460512;258;1127;-45
2021/05/25 11:32:25;;;;;;;;;;;22.10;42.40;;;;;;460449;258;1190;-45
2021/05/25 11:34:27;;;;;;;;;;;22.00;42.40;;;;;;460436;258;1126;-44
2021/05/25 11:36:28;;;;;;;;;;;22.10;42.40;;;;;;460382;258;1452;-45
2021/05/25 11:38:29;;;;;;;;;;;22.10;42.40;;;;;;460588;258;1088;-44
2021/05/25 11:40:31;;;;;;;;;;;22.10;42.40;;;;;;460464;258;1111;-45
2021/05/25 11:42:32;;;;;;;;;;;22.10;42.40;;;;;;460392;258;1114;-45
2021/05/25 11:44:34;;;;;;;;;;;22.10;42.30;;;;;;460307;258;1280;-45
2021/05/25 11:46:34;;;;;;;;;;;22.10;42.30;;;;;;460170;258;2188;-44
2021/05/25 11:48:36;;;;;;;;;;;22.10;42.30;;;;;;460359;258;1302;-45
2021/05/25 11:50:37;;;;;;;;;;;22.10;42.30;;;;;;460420;258;1182;-45
2021/05/25 11:52:39;;;;;;;;;;;22.10;42.30;;;;;;460379;258;1235;-45
2021/05/25 11:54:40;;;;;;;;;;;22.10;42.30;;;;;;460055;258;2193;-45
2021/05/25 11:56:41;;;;;;;;;;;22.10;42.30;;;;;;460150;258;1433;-44